sensor_id;sensor_type;location;lat;lon;timestamp;P1;durP1;ratioP1;P2;durP2;ratioP2
7843;SDS011;3967;48.702;9.326;2024-01-30T00:00:27;11.50;;;8.00;;
7843;SDS011;3967;48.702;9.326;2024-01-30T00:02:54;10.90;;;7.80;;
7843;SDS011;3967;48.702;9.326;2024-01-30T00:05:20;13.70;;;7.57;;
7843;SDS011;3967;48.702;9.326;2024-01-30T00:07:47;14.83;;;8.43;;
7843;SDS011;3967;48.702;9.326;2024-01-30T00:10:14;11.50;;;8.03;;
7843;SDS011;3967;48.702;9.326;2024-01-30T00:12:41;11.30;;;8.23;;
7843;SDS011;3967;48.702;9.326;2024-01-30T00:15:08;11.20;;;7.97;;
7843;SDS011;3967;48.702;9.326;2024-01-30T00:17:36;12.47;;;8.83;;
7843;SDS011;3967;48.702;9.326;2024-01-30T00:20:03;13.03;;;8.60;;
7843;SDS011;3967;48.702;9.326;2024-01-30T00:22:35;11.00;;;8.07;;
7843;SDS011;3967;48.702;9.326;2024-01-30T00:25:02;13.63;;;8.80;;
7843;SDS011;3967;48.702;9.326;2024-01-30T00:27:29;11.20;;;7.73;;
7843;SDS011;3967;48.702;9.326;2024-01-30T00:29:56;12.00;;;7.80;;
7843;SDS011;3967;48.702;9.326;2024-01-30T00:32:22;12.23;;;8.23;;
7843;SDS011;3967;48.702;9.326;2024-01-30T00:34:49;12.03;;;8.30;;
7843;SDS011;3967;48.702;9.326;2024-01-30T00:37:16;11.20;;;8.17;;
7843;SDS011;3967;48.702;9.326;2024-01-30T00:39:43;15.53;;;9.23;;
7843;SDS011;3967;48.702;9.326;2024-01-30T00:42:10;11.03;;;7.90;;
7843;SDS011;3967;48.702;9.326;2024-01-30T00:44:36;11.53;;;8.27;;
7843;SDS011;3967;48.702;9.326;2024-01-30T00:47:05;10.07;;;7.60;;
7843;SDS011;3967;48.702;9.326;2024-01-30T00:49:32;14.43;;;8.53;;
7843;SDS011;3967;48.702;9.326;2024-01-30T00:51:59;9.77;;;8.00;;
7843;SDS011;3967;48.702;9.326;2024-01-30T00:54:26;14.43;;;8.70;;
7843;SDS011;3967;48.702;9.326;2024-01-30T00:56:52;10.60;;;8.27;;
7843;SDS011;3967;48.702;9.326;2024-01-30T00:59:19;11.17;;;8.60;;
7843;SDS011;3967;48.702;9.326;2024-01-30T01:01:46;13.90;;;8.47;;
7843;SDS011;3967;48.702;9.326;2024-01-30T01:04:13;10.53;;;7.90;;
7843;SDS011;3967;48.702;9.326;2024-01-30T01:06:40;11.17;;;8.57;;
7843;SDS011;3967;48.702;9.326;2024-01-30T01:09:11;12.67;;;8.67;;
7843;SDS011;3967;48.702;9.326;2024-01-30T01:11:38;12.43;;;9.27;;
7843;SDS011;3967;48.702;9.326;2024-01-30T01:14:05;12.93;;;9.10;;
7843;SDS011;3967;48.702;9.326;2024-01-30T01:16:32;16.63;;;9.07;;
7843;SDS011;3967;48.702;9.326;2024-01-30T01:18:59;14.40;;;9.43;;
7843;SDS011;3967;48.702;9.326;2024-01-30T01:21:27;14.43;;;8.80;;
7843;SDS011;3967;48.702;9.326;2024-01-30T01:23:54;14.57;;;9.30;;
7843;SDS011;3967;48.702;9.326;2024-01-30T01:26:20;14.20;;;9.83;;
7843;SDS011;3967;48.702;9.326;2024-01-30T01:28:47;14.03;;;8.17;;
7843;SDS011;3967;48.702;9.326;2024-01-30T01:31:14;14.23;;;8.87;;
7843;SDS011;3967;48.702;9.326;2024-01-30T01:33:42;11.57;;;7.43;;
7843;SDS011;3967;48.702;9.326;2024-01-30T01:36:09;12.83;;;8.03;;
7843;SDS011;3967;48.702;9.326;2024-01-30T01:38:35;13.10;;;8.67;;
7843;SDS011;3967;48.702;9.326;2024-01-30T01:41:02;13.40;;;8.73;;
7843;SDS011;3967;48.702;9.326;2024-01-30T01:43:29;13.83;;;7.83;;
7843;SDS011;3967;48.702;9.326;2024-01-30T01:45:56;14.20;;;8.23;;
7843;SDS011;3967;48.702;9.326;2024-01-30T01:48:23;12.03;;;8.30;;
7843;SDS011;3967;48.702;9.326;2024-01-30T01:50:50;15.67;;;8.87;;
7843;SDS011;3967;48.702;9.326;2024-01-30T01:53:18;14.97;;;8.97;;
7843;SDS011;3967;48.702;9.326;2024-01-30T01:55:45;13.27;;;7.83;;
7843;SDS011;3967;48.702;9.326;2024-01-30T01:58:12;14.53;;;8.27;;
7843;SDS011;3967;48.702;9.326;2024-01-30T02:00:39;13.63;;;8.53;;
7843;SDS011;3967;48.702;9.326;2024-01-30T02:03:09;13.70;;;9.23;;
7843;SDS011;3967;48.702;9.326;2024-01-30T02:05:38;11.07;;;7.73;;
7843;SDS011;3967;48.702;9.326;2024-01-30T02:08:06;12.40;;;8.17;;
7843;SDS011;3967;48.702;9.326;2024-01-30T02:10:34;13.90;;;8.93;;
7843;SDS011;3967;48.702;9.326;2024-01-30T02:13:01;12.87;;;8.13;;
7843;SDS011;3967;48.702;9.326;2024-01-30T02:15:28;13.00;;;8.73;;
7843;SDS011;3967;48.702;9.326;2024-01-30T02:17:55;12.73;;;8.17;;
7843;SDS011;3967;48.702;9.326;2024-01-30T02:20:23;16.80;;;9.50;;
7843;SDS011;3967;48.702;9.326;2024-01-30T02:22:52;13.03;;;8.93;;
7843;SDS011;3967;48.702;9.326;2024-01-30T02:25:31;16.37;;;9.40;;
7843;SDS011;3967;48.702;9.326;2024-01-30T02:28:13;10.20;;;7.53;;
7843;SDS011;3967;48.702;9.326;2024-01-30T02:30:40;15.03;;;9.40;;
7843;SDS011;3967;48.702;9.326;2024-01-30T02:33:08;12.43;;;8.40;;
7843;SDS011;3967;48.702;9.326;2024-01-30T02:35:35;12.23;;;8.00;;
7843;SDS011;3967;48.702;9.326;2024-01-30T02:38:02;14.13;;;8.50;;
7843;SDS011;3967;48.702;9.326;2024-01-30T02:40:29;11.27;;;8.07;;
7843;SDS011;3967;48.702;9.326;2024-01-30T02:42:56;11.93;;;8.10;;
7843;SDS011;3967;48.702;9.326;2024-01-30T02:45:24;12.27;;;8.67;;
7843;SDS011;3967;48.702;9.326;2024-01-30T02:47:51;11.60;;;7.73;;
7843;SDS011;3967;48.702;9.326;2024-01-30T02:50:18;10.90;;;7.73;;
7843;SDS011;3967;48.702;9.326;2024-01-30T02:52:46;11.73;;;8.43;;
7843;SDS011;3967;48.702;9.326;2024-01-30T02:55:12;13.43;;;7.80;;
7843;SDS011;3967;48.702;9.326;2024-01-30T02:57:39;13.27;;;8.47;;
7843;SDS011;3967;48.702;9.326;2024-01-30T03:00:06;14.90;;;8.13;;
7843;SDS011;3967;48.702;9.326;2024-01-30T03:02:35;12.07;;;8.43;;
7843;SDS011;3967;48.702;9.326;2024-01-30T03:05:03;12.47;;;8.87;;
7843;SDS011;3967;48.702;9.326;2024-01-30T03:07:31;13.80;;;9.10;;
7843;SDS011;3967;48.702;9.326;2024-01-30T03:09:59;12.53;;;7.97;;
7843;SDS011;3967;48.702;9.326;2024-01-30T03:12:26;12.70;;;8.10;;
7843;SDS011;3967;48.702;9.326;2024-01-30T03:14:53;11.17;;;7.80;;
7843;SDS011;3967;48.702;9.326;2024-01-30T03:17:19;11.77;;;7.67;;
7843;SDS011;3967;48.702;9.326;2024-01-30T03:19:46;12.33;;;8.73;;
7843;SDS011;3967;48.702;9.326;2024-01-30T03:22:13;12.77;;;8.20;;
7843;SDS011;3967;48.702;9.326;2024-01-30T03:24:40;9.73;;;7.27;;
7843;SDS011;3967;48.702;9.326;2024-01-30T03:27:06;11.47;;;8.17;;
7843;SDS011;3967;48.702;9.326;2024-01-30T03:29:33;10.77;;;7.47;;
7843;SDS011;3967;48.702;9.326;2024-01-30T03:32:00;11.17;;;7.70;;
7843;SDS011;3967;48.702;9.326;2024-01-30T03:34:27;11.20;;;8.00;;
7843;SDS011;3967;48.702;9.326;2024-01-30T03:36:54;11.33;;;8.23;;
7843;SDS011;3967;48.702;9.326;2024-01-30T03:39:21;11.33;;;7.87;;
7843;SDS011;3967;48.702;9.326;2024-01-30T03:41:47;13.93;;;8.80;;
7843;SDS011;3967;48.702;9.326;2024-01-30T03:44:14;12.67;;;8.70;;
7843;SDS011;3967;48.702;9.326;2024-01-30T03:46:41;13.87;;;9.40;;
7843;SDS011;3967;48.702;9.326;2024-01-30T03:49:09;12.77;;;8.93;;
7843;SDS011;3967;48.702;9.326;2024-01-30T03:51:36;11.83;;;8.70;;
7843;SDS011;3967;48.702;9.326;2024-01-30T03:54:02;16.97;;;9.27;;
7843;SDS011;3967;48.702;9.326;2024-01-30T03:56:29;13.87;;;9.53;;
7843;SDS011;3967;48.702;9.326;2024-01-30T03:58:56;15.83;;;10.17;;
7843;SDS011;3967;48.702;9.326;2024-01-30T04:01:23;16.13;;;10.53;;
7843;SDS011;3967;48.702;9.326;2024-01-30T04:03:50;17.90;;;10.33;;
7843;SDS011;3967;48.702;9.326;2024-01-30T04:06:16;15.93;;;9.87;;
7843;SDS011;3967;48.702;9.326;2024-01-30T04:08:43;14.93;;;10.53;;
7843;SDS011;3967;48.702;9.326;2024-01-30T04:11:10;13.67;;;9.87;;
7843;SDS011;3967;48.702;9.326;2024-01-30T04:13:37;14.87;;;10.23;;
7843;SDS011;3967;48.702;9.326;2024-01-30T04:16:04;17.77;;;9.33;;
7843;SDS011;3967;48.702;9.326;2024-01-30T04:18:31;11.63;;;8.40;;
7843;SDS011;3967;48.702;9.326;2024-01-30T04:20:58;13.77;;;9.10;;
7843;SDS011;3967;48.702;9.326;2024-01-30T04:23:25;12.63;;;8.50;;
7843;SDS011;3967;48.702;9.326;2024-01-30T04:25:51;13.40;;;9.40;;
7843;SDS011;3967;48.702;9.326;2024-01-30T04:28:18;14.57;;;8.70;;
7843;SDS011;3967;48.702;9.326;2024-01-30T04:30:45;14.40;;;9.80;;
7843;SDS011;3967;48.702;9.326;2024-01-30T04:33:12;15.40;;;9.20;;
7843;SDS011;3967;48.702;9.326;2024-01-30T04:35:39;11.87;;;8.53;;
7843;SDS011;3967;48.702;9.326;2024-01-30T04:38:05;13.53;;;8.77;;
7843;SDS011;3967;48.702;9.326;2024-01-30T04:40:32;14.90;;;9.60;;
7843;SDS011;3967;48.702;9.326;2024-01-30T04:42:59;14.10;;;9.10;;
7843;SDS011;3967;48.702;9.326;2024-01-30T04:45:26;13.07;;;9.50;;
7843;SDS011;3967;48.702;9.326;2024-01-30T04:47:52;12.50;;;9.37;;
7843;SDS011;3967;48.702;9.326;2024-01-30T04:50:19;14.63;;;9.50;;
7843;SDS011;3967;48.702;9.326;2024-01-30T04:52:46;13.97;;;9.93;;
7843;SDS011;3967;48.702;9.326;2024-01-30T04:55:13;13.53;;;9.53;;
7843;SDS011;3967;48.702;9.326;2024-01-30T04:57:40;14.13;;;9.60;;
7843;SDS011;3967;48.702;9.326;2024-01-30T05:00:07;13.53;;;9.43;;
7843;SDS011;3967;48.702;9.326;2024-01-30T05:02:34;13.83;;;9.53;;
7843;SDS011;3967;48.702;9.326;2024-01-30T05:05:00;14.10;;;8.33;;
7843;SDS011;3967;48.702;9.326;2024-01-30T05:07:27;12.23;;;8.97;;
7843;SDS011;3967;48.702;9.326;2024-01-30T05:09:54;11.17;;;8.67;;
7843;SDS011;3967;48.702;9.326;2024-01-30T05:12:24;14.07;;;9.67;;
7843;SDS011;3967;48.702;9.326;2024-01-30T05:14:51;14.80;;;9.23;;
7843;SDS011;3967;48.702;9.326;2024-01-30T05:17:18;15.03;;;9.27;;
7843;SDS011;3967;48.702;9.326;2024-01-30T05:19:45;11.00;;;8.27;;
7843;SDS011;3967;48.702;9.326;2024-01-30T05:22:11;11.57;;;7.70;;
7843;SDS011;3967;48.702;9.326;2024-01-30T05:24:42;12.80;;;8.43;;
7843;SDS011;3967;48.702;9.326;2024-01-30T05:27:09;12.60;;;8.30;;
7843;SDS011;3967;48.702;9.326;2024-01-30T05:29:36;13.40;;;9.87;;
7843;SDS011;3967;48.702;9.326;2024-01-30T05:32:03;14.20;;;9.07;;
7843;SDS011;3967;48.702;9.326;2024-01-30T05:34:31;11.60;;;8.63;;
7843;SDS011;3967;48.702;9.326;2024-01-30T05:36:58;13.50;;;7.63;;
7843;SDS011;3967;48.702;9.326;2024-01-30T05:39:25;10.50;;;7.37;;
7843;SDS011;3967;48.702;9.326;2024-01-30T05:41:51;11.60;;;7.57;;
7843;SDS011;3967;48.702;9.326;2024-01-30T05:44:18;11.97;;;8.07;;
7843;SDS011;3967;48.702;9.326;2024-01-30T05:46:45;10.97;;;8.20;;
7843;SDS011;3967;48.702;9.326;2024-01-30T05:49:12;12.23;;;8.10;;
7843;SDS011;3967;48.702;9.326;2024-01-30T05:51:39;11.83;;;8.20;;
7843;SDS011;3967;48.702;9.326;2024-01-30T05:54:05;13.07;;;7.20;;
7843;SDS011;3967;48.702;9.326;2024-01-30T05:56:32;10.13;;;7.47;;
7843;SDS011;3967;48.702;9.326;2024-01-30T05:58:59;11.63;;;8.70;;
7843;SDS011;3967;48.702;9.326;2024-01-30T06:01:25;10.07;;;7.67;;
7843;SDS011;3967;48.702;9.326;2024-01-30T06:03:52;11.80;;;7.43;;
7843;SDS011;3967;48.702;9.326;2024-01-30T06:06:19;9.57;;;7.40;;
7843;SDS011;3967;48.702;9.326;2024-01-30T06:08:46;11.00;;;7.80;;
7843;SDS011;3967;48.702;9.326;2024-01-30T06:11:13;12.07;;;8.23;;
7843;SDS011;3967;48.702;9.326;2024-01-30T06:13:40;11.83;;;8.00;;
7843;SDS011;3967;48.702;9.326;2024-01-30T06:16:09;13.13;;;8.03;;
7843;SDS011;3967;48.702;9.326;2024-01-30T06:18:37;11.93;;;8.50;;
7843;SDS011;3967;48.702;9.326;2024-01-30T06:21:04;11.97;;;8.03;;
7843;SDS011;3967;48.702;9.326;2024-01-30T06:23:31;10.40;;;8.33;;
7843;SDS011;3967;48.702;9.326;2024-01-30T06:25:58;13.10;;;8.60;;
7843;SDS011;3967;48.702;9.326;2024-01-30T06:28:24;11.27;;;7.43;;
7843;SDS011;3967;48.702;9.326;2024-01-30T06:30:51;11.20;;;7.83;;
7843;SDS011;3967;48.702;9.326;2024-01-30T06:33:18;10.93;;;7.97;;
7843;SDS011;3967;48.702;9.326;2024-01-30T06:35:45;11.13;;;7.63;;
7843;SDS011;3967;48.702;9.326;2024-01-30T06:38:12;12.97;;;8.17;;
7843;SDS011;3967;48.702;9.326;2024-01-30T06:40:39;9.27;;;7.63;;
7843;SDS011;3967;48.702;9.326;2024-01-30T06:43:06;11.53;;;8.00;;
7843;SDS011;3967;48.702;9.326;2024-01-30T06:45:34;10.00;;;7.27;;
7843;SDS011;3967;48.702;9.326;2024-01-30T06:48:01;13.30;;;8.17;;
7843;SDS011;3967;48.702;9.326;2024-01-30T06:50:27;12.17;;;7.33;;
7843;SDS011;3967;48.702;9.326;2024-01-30T06:52:55;12.33;;;8.30;;
7843;SDS011;3967;48.702;9.326;2024-01-30T06:55:21;14.03;;;7.83;;
7843;SDS011;3967;48.702;9.326;2024-01-30T06:57:48;10.67;;;7.60;;
7843;SDS011;3967;48.702;9.326;2024-01-30T07:00:17;12.13;;;8.10;;
7843;SDS011;3967;48.702;9.326;2024-01-30T07:02:45;11.23;;;7.97;;
7843;SDS011;3967;48.702;9.326;2024-01-30T07:05:12;10.97;;;8.57;;
7843;SDS011;3967;48.702;9.326;2024-01-30T07:07:39;12.23;;;8.30;;
7843;SDS011;3967;48.702;9.326;2024-01-30T07:10:06;12.93;;;7.87;;
7843;SDS011;3967;48.702;9.326;2024-01-30T07:12:33;14.10;;;8.77;;
7843;SDS011;3967;48.702;9.326;2024-01-30T07:15:00;11.40;;;8.07;;
7843;SDS011;3967;48.702;9.326;2024-01-30T07:17:29;10.13;;;8.47;;
7843;SDS011;3967;48.702;9.326;2024-01-30T07:19:56;11.50;;;8.33;;
7843;SDS011;3967;48.702;9.326;2024-01-30T07:22:22;16.80;;;9.13;;
7843;SDS011;3967;48.702;9.326;2024-01-30T07:24:49;17.40;;;10.63;;
7843;SDS011;3967;48.702;9.326;2024-01-30T07:27:19;14.07;;;8.90;;
7843;SDS011;3967;48.702;9.326;2024-01-30T07:29:45;15.43;;;9.53;;
7843;SDS011;3967;48.702;9.326;2024-01-30T07:32:12;11.17;;;8.70;;
7843;SDS011;3967;48.702;9.326;2024-01-30T07:34:39;12.97;;;9.77;;
7843;SDS011;3967;48.702;9.326;2024-01-30T07:37:24;15.67;;;9.00;;
7843;SDS011;3967;48.702;9.326;2024-01-30T07:39:50;13.17;;;9.53;;
7843;SDS011;3967;48.702;9.326;2024-01-30T07:42:17;14.27;;;9.40;;
7843;SDS011;3967;48.702;9.326;2024-01-30T07:44:44;13.50;;;9.53;;
7843;SDS011;3967;48.702;9.326;2024-01-30T07:47:11;16.07;;;9.30;;
7843;SDS011;3967;48.702;9.326;2024-01-30T07:49:38;13.43;;;8.80;;
7843;SDS011;3967;48.702;9.326;2024-01-30T07:52:05;12.87;;;9.23;;
7843;SDS011;3967;48.702;9.326;2024-01-30T07:54:32;14.60;;;9.40;;
7843;SDS011;3967;48.702;9.326;2024-01-30T07:57:00;12.60;;;9.13;;
7843;SDS011;3967;48.702;9.326;2024-01-30T07:59:27;11.80;;;8.87;;
7843;SDS011;3967;48.702;9.326;2024-01-30T08:01:54;15.13;;;8.97;;
7843;SDS011;3967;48.702;9.326;2024-01-30T08:04:20;10.47;;;8.73;;
7843;SDS011;3967;48.702;9.326;2024-01-30T08:06:48;12.13;;;8.67;;
7843;SDS011;3967;48.702;9.326;2024-01-30T08:09:15;14.07;;;8.70;;
7843;SDS011;3967;48.702;9.326;2024-01-30T08:11:42;11.67;;;9.13;;
7843;SDS011;3967;48.702;9.326;2024-01-30T08:14:08;10.00;;;8.07;;
7843;SDS011;3967;48.702;9.326;2024-01-30T08:16:35;11.77;;;8.50;;
7843;SDS011;3967;48.702;9.326;2024-01-30T08:19:02;13.33;;;8.60;;
7843;SDS011;3967;48.702;9.326;2024-01-30T08:21:29;13.50;;;9.53;;
7843;SDS011;3967;48.702;9.326;2024-01-30T08:23:56;11.57;;;8.70;;
7843;SDS011;3967;48.702;9.326;2024-01-30T08:26:23;14.03;;;9.67;;
7843;SDS011;3967;48.702;9.326;2024-01-30T08:28:50;12.53;;;9.60;;
7843;SDS011;3967;48.702;9.326;2024-01-30T08:31:18;13.87;;;10.23;;
7843;SDS011;3967;48.702;9.326;2024-01-30T08:33:44;16.67;;;10.40;;
7843;SDS011;3967;48.702;9.326;2024-01-30T08:36:13;15.53;;;9.70;;
7843;SDS011;3967;48.702;9.326;2024-01-30T08:38:41;12.43;;;9.47;;
7843;SDS011;3967;48.702;9.326;2024-01-30T08:41:08;13.90;;;9.10;;
7843;SDS011;3967;48.702;9.326;2024-01-30T08:43:35;15.27;;;9.73;;
7843;SDS011;3967;48.702;9.326;2024-01-30T08:46:02;15.10;;;10.33;;
7843;SDS011;3967;48.702;9.326;2024-01-30T08:48:29;13.83;;;9.50;;
7843;SDS011;3967;48.702;9.326;2024-01-30T08:50:56;14.43;;;10.17;;
7843;SDS011;3967;48.702;9.326;2024-01-30T08:53:23;13.53;;;9.10;;
7843;SDS011;3967;48.702;9.326;2024-01-30T08:55:50;14.20;;;8.97;;
7843;SDS011;3967;48.702;9.326;2024-01-30T08:58:18;16.23;;;9.80;;
7843;SDS011;3967;48.702;9.326;2024-01-30T09:00:45;19.67;;;10.20;;
7843;SDS011;3967;48.702;9.326;2024-01-30T09:03:12;12.77;;;9.20;;
7843;SDS011;3967;48.702;9.326;2024-01-30T09:05:39;15.53;;;9.67;;
7843;SDS011;3967;48.702;9.326;2024-01-30T09:08:06;14.53;;;9.50;;
7843;SDS011;3967;48.702;9.326;2024-01-30T09:10:34;13.77;;;9.40;;
7843;SDS011;3967;48.702;9.326;2024-01-30T09:13:01;11.30;;;9.43;;
7843;SDS011;3967;48.702;9.326;2024-01-30T09:15:28;18.77;;;9.27;;
7843;SDS011;3967;48.702;9.326;2024-01-30T09:17:55;15.50;;;9.40;;
7843;SDS011;3967;48.702;9.326;2024-01-30T09:20:22;12.13;;;9.50;;
7843;SDS011;3967;48.702;9.326;2024-01-30T09:22:49;16.20;;;9.87;;
7843;SDS011;3967;48.702;9.326;2024-01-30T09:25:16;13.60;;;9.00;;
7843;SDS011;3967;48.702;9.326;2024-01-30T09:27:45;11.20;;;9.50;;
7843;SDS011;3967;48.702;9.326;2024-01-30T09:30:12;11.40;;;8.73;;
7843;SDS011;3967;48.702;9.326;2024-01-30T09:32:42;11.80;;;8.70;;
7843;SDS011;3967;48.702;9.326;2024-01-30T09:35:09;13.10;;;9.60;;
7843;SDS011;3967;48.702;9.326;2024-01-30T09:37:36;13.73;;;8.50;;
7843;SDS011;3967;48.702;9.326;2024-01-30T09:40:03;14.13;;;9.03;;
7843;SDS011;3967;48.702;9.326;2024-01-30T09:42:34;11.00;;;9.03;;
7843;SDS011;3967;48.702;9.326;2024-01-30T09:45:03;11.63;;;8.80;;
7843;SDS011;3967;48.702;9.326;2024-01-30T09:47:31;12.30;;;9.20;;
7843;SDS011;3967;48.702;9.326;2024-01-30T09:50:11;15.90;;;9.17;;
7843;SDS011;3967;48.702;9.326;2024-01-30T09:52:39;11.03;;;8.67;;
7843;SDS011;3967;48.702;9.326;2024-01-30T09:55:07;12.80;;;8.87;;
7843;SDS011;3967;48.702;9.326;2024-01-30T09:57:34;17.60;;;9.63;;
7843;SDS011;3967;48.702;9.326;2024-01-30T10:00:05;12.87;;;9.13;;
7843;SDS011;3967;48.702;9.326;2024-01-30T10:02:35;11.70;;;8.27;;
7843;SDS011;3967;48.702;9.326;2024-01-30T10:05:02;14.43;;;8.73;;
7843;SDS011;3967;48.702;9.326;2024-01-30T10:07:29;12.77;;;9.13;;
7843;SDS011;3967;48.702;9.326;2024-01-30T10:09:57;10.43;;;7.90;;
7843;SDS011;3967;48.702;9.326;2024-01-30T10:12:27;12.67;;;9.17;;
7843;SDS011;3967;48.702;9.326;2024-01-30T10:14:56;13.03;;;9.33;;
7843;SDS011;3967;48.702;9.326;2024-01-30T10:17:24;13.67;;;9.07;;
7843;SDS011;3967;48.702;9.326;2024-01-30T10:19:59;12.20;;;9.10;;
7843;SDS011;3967;48.702;9.326;2024-01-30T10:22:27;11.07;;;8.43;;
7843;SDS011;3967;48.702;9.326;2024-01-30T10:24:54;13.53;;;8.70;;
7843;SDS011;3967;48.702;9.326;2024-01-30T10:27:27;11.37;;;7.57;;
7843;SDS011;3967;48.702;9.326;2024-01-30T10:29:55;9.53;;;7.80;;
7843;SDS011;3967;48.702;9.326;2024-01-30T10:32:23;12.30;;;8.27;;
7843;SDS011;3967;48.702;9.326;2024-01-30T10:34:50;11.60;;;8.60;;
7843;SDS011;3967;48.702;9.326;2024-01-30T10:37:17;14.63;;;8.83;;
7843;SDS011;3967;48.702;9.326;2024-01-30T10:39:47;10.87;;;8.30;;
7843;SDS011;3967;48.702;9.326;2024-01-30T10:42:18;12.47;;;9.07;;
7843;SDS011;3967;48.702;9.326;2024-01-30T10:47:21;11.03;;;8.63;;
7843;SDS011;3967;48.702;9.326;2024-01-30T10:49:55;11.13;;;8.07;;
7843;SDS011;3967;48.702;9.326;2024-01-30T10:52:23;11.13;;;9.30;;
7843;SDS011;3967;48.702;9.326;2024-01-30T10:54:53;13.13;;;8.97;;
7843;SDS011;3967;48.702;9.326;2024-01-30T10:57:22;12.67;;;8.97;;
7843;SDS011;3967;48.702;9.326;2024-01-30T10:59:51;13.43;;;9.37;;
7843;SDS011;3967;48.702;9.326;2024-01-30T11:02:21;11.97;;;8.30;;
7843;SDS011;3967;48.702;9.326;2024-01-30T11:04:50;11.70;;;8.30;;
7843;SDS011;3967;48.702;9.326;2024-01-30T11:07:26;12.50;;;8.30;;
7843;SDS011;3967;48.702;9.326;2024-01-30T11:12:24;10.63;;;8.07;;
7843;SDS011;3967;48.702;9.326;2024-01-30T11:15:12;11.17;;;8.20;;
7843;SDS011;3967;48.702;9.326;2024-01-30T11:20:19;11.30;;;8.17;;
7843;SDS011;3967;48.702;9.326;2024-01-30T11:22:53;10.47;;;7.77;;
7843;SDS011;3967;48.702;9.326;2024-01-30T11:25:22;11.30;;;7.33;;
7843;SDS011;3967;48.702;9.326;2024-01-30T11:27:51;11.17;;;8.23;;
7843;SDS011;3967;48.702;9.326;2024-01-30T11:30:27;14.57;;;8.03;;
7843;SDS011;3967;48.702;9.326;2024-01-30T11:32:58;10.23;;;8.07;;
7843;SDS011;3967;48.702;9.326;2024-01-30T11:35:25;11.77;;;9.30;;
7843;SDS011;3967;48.702;9.326;2024-01-30T11:37:52;12.23;;;8.70;;
7843;SDS011;3967;48.702;9.326;2024-01-30T11:40:21;12.57;;;9.17;;
7843;SDS011;3967;48.702;9.326;2024-01-30T11:42:47;12.10;;;8.93;;
7843;SDS011;3967;48.702;9.326;2024-01-30T11:45:15;16.97;;;8.60;;
7843;SDS011;3967;48.702;9.326;2024-01-30T11:47:43;11.63;;;9.23;;
7843;SDS011;3967;48.702;9.326;2024-01-30T11:50:10;12.07;;;9.83;;
7843;SDS011;3967;48.702;9.326;2024-01-30T11:52:38;15.40;;;9.83;;
7843;SDS011;3967;48.702;9.326;2024-01-30T11:55:04;15.47;;;10.07;;
7843;SDS011;3967;48.702;9.326;2024-01-30T11:57:32;18.60;;;10.53;;
7843;SDS011;3967;48.702;9.326;2024-01-30T12:00:01;17.57;;;10.17;;
7843;SDS011;3967;48.702;9.326;2024-01-30T12:02:30;15.03;;;10.23;;
7843;SDS011;3967;48.702;9.326;2024-01-30T12:04:57;12.33;;;9.43;;
7843;SDS011;3967;48.702;9.326;2024-01-30T12:07:24;11.10;;;9.10;;
7843;SDS011;3967;48.702;9.326;2024-01-30T12:09:52;12.33;;;9.27;;
7843;SDS011;3967;48.702;9.326;2024-01-30T12:12:27;15.90;;;10.13;;
7843;SDS011;3967;48.702;9.326;2024-01-30T12:14:55;13.53;;;9.37;;
7843;SDS011;3967;48.702;9.326;2024-01-30T12:17:23;18.27;;;10.10;;
7843;SDS011;3967;48.702;9.326;2024-01-30T12:20:02;14.27;;;9.30;;
7843;SDS011;3967;48.702;9.326;2024-01-30T12:22:40;12.80;;;8.80;;
7843;SDS011;3967;48.702;9.326;2024-01-30T12:25:08;13.13;;;9.30;;
7843;SDS011;3967;48.702;9.326;2024-01-30T12:27:39;14.57;;;9.60;;
7843;SDS011;3967;48.702;9.326;2024-01-30T12:30:14;11.37;;;8.93;;
7843;SDS011;3967;48.702;9.326;2024-01-30T12:32:41;17.10;;;9.40;;
7843;SDS011;3967;48.702;9.326;2024-01-30T12:35:10;14.17;;;9.13;;
7843;SDS011;3967;48.702;9.326;2024-01-30T12:37:38;14.33;;;9.00;;
7843;SDS011;3967;48.702;9.326;2024-01-30T12:40:05;13.43;;;9.10;;
7843;SDS011;3967;48.702;9.326;2024-01-30T12:42:34;18.67;;;9.97;;
7843;SDS011;3967;48.702;9.326;2024-01-30T12:45:03;13.17;;;9.27;;
7843;SDS011;3967;48.702;9.326;2024-01-30T12:47:31;12.77;;;8.77;;
7843;SDS011;3967;48.702;9.326;2024-01-30T12:49:58;14.80;;;8.93;;
7843;SDS011;3967;48.702;9.326;2024-01-30T12:52:25;18.03;;;9.70;;
7843;SDS011;3967;48.702;9.326;2024-01-30T12:54:52;14.90;;;9.80;;
7843;SDS011;3967;48.702;9.326;2024-01-30T12:57:19;12.00;;;9.27;;
7843;SDS011;3967;48.702;9.326;2024-01-30T12:59:46;17.47;;;9.33;;
7843;SDS011;3967;48.702;9.326;2024-01-30T13:02:13;15.47;;;9.37;;
7843;SDS011;3967;48.702;9.326;2024-01-30T13:04:40;16.43;;;9.43;;
7843;SDS011;3967;48.702;9.326;2024-01-30T13:07:10;16.40;;;10.23;;
7843;SDS011;3967;48.702;9.326;2024-01-30T13:09:36;15.77;;;9.50;;
7843;SDS011;3967;48.702;9.326;2024-01-30T13:12:04;14.30;;;9.20;;
7843;SDS011;3967;48.702;9.326;2024-01-30T13:14:31;10.77;;;8.00;;
7843;SDS011;3967;48.702;9.326;2024-01-30T13:16:57;10.67;;;8.37;;
7843;SDS011;3967;48.702;9.326;2024-01-30T13:19:25;13.50;;;8.53;;
7843;SDS011;3967;48.702;9.326;2024-01-30T13:21:51;17.57;;;8.37;;
7843;SDS011;3967;48.702;9.326;2024-01-30T13:24:18;11.93;;;9.07;;
7843;SDS011;3967;48.702;9.326;2024-01-30T13:26:48;11.70;;;8.90;;
7843;SDS011;3967;48.702;9.326;2024-01-30T13:29:15;10.70;;;8.33;;
7843;SDS011;3967;48.702;9.326;2024-01-30T13:31:42;12.87;;;8.27;;
7843;SDS011;3967;48.702;9.326;2024-01-30T13:34:10;12.23;;;8.17;;
7843;SDS011;3967;48.702;9.326;2024-01-30T13:36:38;16.63;;;8.67;;
7843;SDS011;3967;48.702;9.326;2024-01-30T13:39:04;14.10;;;7.93;;
7843;SDS011;3967;48.702;9.326;2024-01-30T13:41:36;14.97;;;8.70;;
7843;SDS011;3967;48.702;9.326;2024-01-30T13:44:04;11.17;;;8.07;;
7843;SDS011;3967;48.702;9.326;2024-01-30T13:46:31;12.50;;;8.93;;
7843;SDS011;3967;48.702;9.326;2024-01-30T13:48:58;12.83;;;8.63;;
7843;SDS011;3967;48.702;9.326;2024-01-30T13:51:26;12.57;;;8.80;;
7843;SDS011;3967;48.702;9.326;2024-01-30T13:53:53;14.43;;;8.03;;
7843;SDS011;3967;48.702;9.326;2024-01-30T13:56:20;13.13;;;8.70;;
7843;SDS011;3967;48.702;9.326;2024-01-30T13:58:50;13.53;;;8.40;;
7843;SDS011;3967;48.702;9.326;2024-01-30T14:01:17;11.47;;;8.70;;
7843;SDS011;3967;48.702;9.326;2024-01-30T14:03:44;13.20;;;8.23;;
7843;SDS011;3967;48.702;9.326;2024-01-30T14:06:11;15.90;;;8.90;;
7843;SDS011;3967;48.702;9.326;2024-01-30T14:08:39;13.30;;;9.17;;
7843;SDS011;3967;48.702;9.326;2024-01-30T14:11:08;12.20;;;7.90;;
7843;SDS011;3967;48.702;9.326;2024-01-30T14:13:38;11.50;;;8.40;;
7843;SDS011;3967;48.702;9.326;2024-01-30T14:16:05;12.97;;;8.73;;
7843;SDS011;3967;48.702;9.326;2024-01-30T14:18:33;15.47;;;9.37;;
7843;SDS011;3967;48.702;9.326;2024-01-30T14:21:00;14.87;;;8.20;;
7843;SDS011;3967;48.702;9.326;2024-01-30T14:23:27;13.17;;;8.47;;
7843;SDS011;3967;48.702;9.326;2024-01-30T14:25:54;13.40;;;8.63;;
7843;SDS011;3967;48.702;9.326;2024-01-30T14:28:21;13.23;;;8.93;;
7843;SDS011;3967;48.702;9.326;2024-01-30T14:30:48;15.43;;;8.17;;
7843;SDS011;3967;48.702;9.326;2024-01-30T14:33:14;13.00;;;8.87;;
7843;SDS011;3967;48.702;9.326;2024-01-30T14:35:41;19.37;;;8.10;;
7843;SDS011;3967;48.702;9.326;2024-01-30T14:38:08;22.23;;;9.00;;
7843;SDS011;3967;48.702;9.326;2024-01-30T14:40:37;10.90;;;8.03;;
7843;SDS011;3967;48.702;9.326;2024-01-30T14:43:05;12.03;;;8.70;;
7843;SDS011;3967;48.702;9.326;2024-01-30T14:45:32;14.80;;;8.00;;
7843;SDS011;3967;48.702;9.326;2024-01-30T14:47:59;18.67;;;9.13;;
7843;SDS011;3967;48.702;9.326;2024-01-30T14:50:26;14.27;;;7.83;;
7843;SDS011;3967;48.702;9.326;2024-01-30T14:52:55;13.57;;;8.57;;
7843;SDS011;3967;48.702;9.326;2024-01-30T14:55:22;14.53;;;8.07;;
7843;SDS011;3967;48.702;9.326;2024-01-30T14:57:50;19.17;;;7.83;;
7843;SDS011;3967;48.702;9.326;2024-01-30T15:00:17;16.07;;;8.40;;
7843;SDS011;3967;48.702;9.326;2024-01-30T15:02:44;15.83;;;9.10;;
7843;SDS011;3967;48.702;9.326;2024-01-30T15:05:13;14.63;;;8.17;;
7843;SDS011;3967;48.702;9.326;2024-01-30T15:07:40;11.87;;;8.17;;
7843;SDS011;3967;48.702;9.326;2024-01-30T15:10:08;11.30;;;7.77;;